createdAt,value
2022-09-16T00:02:18.862Z,13.70
2022-09-16T00:04:50.913Z,13.70
2022-09-16T00:07:25.110Z,13.70
2022-09-16T00:09:58.887Z,13.70
2022-09-16T00:12:32.859Z,13.70
2022-09-16T00:15:10.537Z,13.70
2022-09-16T00:17:42.758Z,13.70
2022-09-16T00:20:16.743Z,13.70
2022-09-16T00:22:50.799Z,13.70
2022-09-16T00:25:22.773Z,13.60
2022-09-16T00:27:56.946Z,13.60
2022-09-16T00:30:33.413Z,13.60
2022-09-16T00:33:05.969Z,13.60
2022-09-16T00:35:39.828Z,13.60
2022-09-16T00:38:11.727Z,13.60
2022-09-16T00:40:49.622Z,13.60
2022-09-16T00:43:22.070Z,13.60
2022-09-16T00:46:00.006Z,13.60
2022-09-16T00:48:34.132Z,13.70
2022-09-16T00:51:09.438Z,13.70
2022-09-16T00:53:44.457Z,13.70
2022-09-16T00:56:16.710Z,13.80
2022-09-16T00:58:51.832Z,13.70
2022-09-16T01:01:28.621Z,13.70
2022-09-16T01:04:03.900Z,13.70
2022-09-16T01:06:39.225Z,13.70
2022-09-16T01:09:12.800Z,13.70
2022-09-16T01:11:46.750Z,13.80
2022-09-16T01:14:31.225Z,13.70
2022-09-16T01:17:09.658Z,13.70
2022-09-16T01:19:55.131Z,13.70
2022-09-16T01:22:37.499Z,13.70
2022-09-16T01:25:13.843Z,13.70
2022-09-16T01:28:16.947Z,13.70
2022-09-16T01:30:57.179Z,13.70
2022-09-16T01:33:35.173Z,13.70
2022-09-16T01:36:27.833Z,13.60
2022-09-16T01:39:16.853Z,13.60
2022-09-16T01:42:01.570Z,13.60
2022-09-16T01:44:39.522Z,13.70
2022-09-16T01:47:19.010Z,13.70
2022-09-16T01:49:59.288Z,13.70
2022-09-16T01:52:38.031Z,13.70
2022-09-16T01:55:12.663Z,13.70
2022-09-16T01:57:49.252Z,13.70
2022-09-16T02:00:21.943Z,13.60
2022-09-16T02:03:00.256Z,13.60
2022-09-16T02:05:35.785Z,13.60
2022-09-16T02:08:11.575Z,13.60
2022-09-16T02:10:44.865Z,13.60
2022-09-16T02:13:21.059Z,13.60
2022-09-16T02:15:55.298Z,13.60
2022-09-16T02:18:31.582Z,13.60
2022-09-16T02:21:03.812Z,13.60
2022-09-16T02:23:37.355Z,13.60
2022-09-16T02:26:10.012Z,13.60
2022-09-16T02:28:45.407Z,13.60
2022-09-16T02:31:17.840Z,13.60
2022-09-16T02:33:56.261Z,13.60
2022-09-16T02:36:28.113Z,13.60
2022-09-16T02:39:04.112Z,13.60
2022-09-16T02:41:36.273Z,13.60
2022-09-16T02:44:09.793Z,13.60
2022-09-16T02:46:46.528Z,13.60
2022-09-16T02:49:24.090Z,13.60
2022-09-16T02:52:00.493Z,13.60
2022-09-16T02:54:36.887Z,13.60
2022-09-16T02:57:10.915Z,13.60
2022-09-16T02:59:44.730Z,13.60
2022-09-16T03:02:16.158Z,13.60
2022-09-16T03:04:52.461Z,13.60
2022-09-16T03:07:24.850Z,13.60
2022-09-16T03:09:58.798Z,13.60
2022-09-16T03:12:30.164Z,13.60
2022-09-16T03:15:16.668Z,13.60
2022-09-16T03:17:48.454Z,13.60
2022-09-16T03:20:25.505Z,13.60
2022-09-16T03:23:02.271Z,13.50
2022-09-16T03:25:34.149Z,13.50
2022-09-16T03:28:09.603Z,13.50
2022-09-16T03:30:46.413Z,13.50
2022-09-16T03:33:21.980Z,13.40
2022-09-16T03:36:00.082Z,13.50
2022-09-16T03:38:34.043Z,13.50
2022-09-16T03:41:08.046Z,13.50
2022-09-16T03:43:39.773Z,13.50
2022-09-16T03:46:14.167Z,13.50
2022-09-16T03:48:47.830Z,13.40
2022-09-16T03:51:24.545Z,13.50
2022-09-16T03:53:56.937Z,13.50
2022-09-16T03:56:31.100Z,13.40
2022-09-16T03:59:04.854Z,13.40
2022-09-16T04:01:38.850Z,13.40
2022-09-16T04:04:13.128Z,13.50
2022-09-16T04:06:47.698Z,13.40
2022-09-16T04:09:19.919Z,13.40
2022-09-16T04:11:53.902Z,13.50
2022-09-16T04:14:27.796Z,13.50
2022-09-16T04:17:01.801Z,13.40
2022-09-16T04:19:36.029Z,13.40
2022-09-16T04:22:12.450Z,13.40
2022-09-16T04:24:44.829Z,13.20
2022-09-16T04:27:19.682Z,13.10
2022-09-16T04:29:51.954Z,13.00
2022-09-16T04:32:25.847Z,12.90
2022-09-16T04:34:59.905Z,12.90
2022-09-16T04:37:36.480Z,12.80
2022-09-16T04:40:10.349Z,12.80
2022-09-16T04:42:42.849Z,12.80
2022-09-16T04:45:16.822Z,12.80
2022-09-16T04:47:48.819Z,12.80
2022-09-16T04:50:22.839Z,12.70
2022-09-16T04:53:00.028Z,12.70
2022-09-16T04:55:35.050Z,12.70
2022-09-16T04:58:11.741Z,12.70
2022-09-16T05:00:48.960Z,12.70
2022-09-16T05:03:22.725Z,12.60
2022-09-16T05:05:59.427Z,12.60
2022-09-16T05:08:36.528Z,12.60
2022-09-16T05:11:12.277Z,12.60
2022-09-16T05:13:47.337Z,12.60
2022-09-16T05:16:22.550Z,12.60
2022-09-16T05:18:57.575Z,12.60
2022-09-16T05:21:33.299Z,12.60
2022-09-16T05:24:11.253Z,12.60
2022-09-16T05:26:45.294Z,12.60
2022-09-16T05:29:20.407Z,12.60
2022-09-16T05:31:55.917Z,12.70
2022-09-16T05:34:32.496Z,12.70
2022-09-16T05:37:08.553Z,12.80
2022-09-16T05:39:46.803Z,12.90
2022-09-16T05:42:22.928Z,13.10
2022-09-16T05:45:00.081Z,13.30
2022-09-16T05:47:32.709Z,13.50
2022-09-16T05:50:11.231Z,14.00
2022-09-16T05:52:47.038Z,14.50
2022-09-16T05:55:28.095Z,14.90
2022-09-16T05:58:03.560Z,14.90
2022-09-16T06:00:39.100Z,15.00
2022-09-16T06:03:14.141Z,14.90
2022-09-16T06:05:49.098Z,14.80
2022-09-16T06:08:23.453Z,14.70
2022-09-16T06:11:06.663Z,14.60
2022-09-16T06:13:41.532Z,14.60
2022-09-16T06:16:17.053Z,14.50
2022-09-16T06:18:52.011Z,14.50
2022-09-16T06:21:30.807Z,14.50
2022-09-16T06:24:09.333Z,14.50
2022-09-16T06:26:47.156Z,14.40
2022-09-16T06:29:21.303Z,14.40
2022-09-16T06:32:02.318Z,14.50
2022-09-16T06:34:47.919Z,14.50
2022-09-16T06:37:24.879Z,14.60
2022-09-16T06:40:00.216Z,14.80
2022-09-16T06:42:39.434Z,15.20
2022-09-16T06:45:15.582Z,15.70
2022-09-16T06:47:55.936Z,16.00
2022-09-16T06:50:29.354Z,16.20
2022-09-16T06:53:05.407Z,16.20
2022-09-16T06:55:45.867Z,16.40
2022-09-16T06:58:23.834Z,16.80
2022-09-16T07:00:59.210Z,17.00
2022-09-16T07:03:35.548Z,17.40
2022-09-16T07:06:08.892Z,17.70
2022-09-16T07:08:44.290Z,17.80
2022-09-16T07:11:20.380Z,17.80
2022-09-16T07:14:02.487Z,17.80
2022-09-16T07:16:37.943Z,17.80
2022-09-16T07:19:12.660Z,17.80
2022-09-16T07:21:49.690Z,17.70
2022-09-16T07:24:25.169Z,17.40
2022-09-16T07:27:05.440Z,17.20
2022-09-16T07:29:42.929Z,16.90
2022-09-16T07:32:20.171Z,16.70
2022-09-16T07:35:01.611Z,16.60
2022-09-16T07:38:32.158Z,16.40
2022-09-16T07:44:19.041Z,16.40
2022-09-16T07:46:58.375Z,16.50
2022-09-16T07:49:34.892Z,16.40
2022-09-16T07:52:09.903Z,16.40
2022-09-16T07:54:44.818Z,16.40
2022-09-16T07:57:18.875Z,16.30
2022-09-16T07:59:55.088Z,16.20
2022-09-16T08:02:32.237Z,16.20
2022-09-16T08:05:07.521Z,16.20
2022-09-16T08:07:45.001Z,16.20
2022-09-16T08:10:22.690Z,16.20
2022-09-16T08:12:57.544Z,16.30
2022-09-16T08:15:33.349Z,16.40
2022-09-16T08:18:10.296Z,16.70
2022-09-16T08:20:45.031Z,17.00
2022-09-16T08:23:20.974Z,17.20
2022-09-16T08:26:03.562Z,17.40
2022-09-16T08:28:57.542Z,17.80
2022-09-16T08:31:36.281Z,18.20
2022-09-16T08:34:13.813Z,18.20
2022-09-16T08:36:52.343Z,18.50
2022-09-16T08:39:33.215Z,18.60
2022-09-16T08:42:32.067Z,18.60
2022-09-16T08:45:23.028Z,18.50
2022-09-16T08:48:08.632Z,18.20
2022-09-16T08:50:51.422Z,18.10
2022-09-16T08:53:35.899Z,18.00
2022-09-16T08:56:14.310Z,18.20
2022-09-16T08:58:52.052Z,18.70
2022-09-16T09:01:31.330Z,19.20
2022-09-16T09:04:06.321Z,19.20
2022-09-16T09:06:52.642Z,19.30
2022-09-16T09:09:31.968Z,19.30
2022-09-16T09:12:09.941Z,19.40
2022-09-16T09:15:06.459Z,19.80
2022-09-16T09:17:51.467Z,20.30
2022-09-16T09:20:31.441Z,20.70
2022-09-16T09:23:15.527Z,21.00
2022-09-16T09:25:47.509Z,21.10
2022-09-16T09:28:36.340Z,21.20
2022-09-16T09:31:13.913Z,21.30
2022-09-16T09:33:55.235Z,21.10
2022-09-16T09:36:37.991Z,20.70
2022-09-16T09:39:31.493Z,20.30
2022-09-16T09:42:07.676Z,19.90
2022-09-16T09:44:49.488Z,19.70
2022-09-16T09:47:28.066Z,19.80
2022-09-16T09:50:24.535Z,20.20
2022-09-16T09:53:31.360Z,20.20
2022-09-16T09:56:19.531Z,20.00
2022-09-16T09:58:58.139Z,20.10
2022-09-16T10:01:32.690Z,20.40
2022-09-16T10:04:12.178Z,20.30
2022-09-16T10:06:46.582Z,20.30
2022-09-16T10:09:23.947Z,20.40
2022-09-16T10:12:06.314Z,20.40
2022-09-16T10:14:44.041Z,20.60
2022-09-16T10:17:19.225Z,20.70
2022-09-16T10:19:58.828Z,20.90
2022-09-16T10:22:34.334Z,21.10
2022-09-16T10:25:10.385Z,21.20
2022-09-16T10:27:58.788Z,21.30
2022-09-16T10:30:34.565Z,21.30
2022-09-16T10:33:09.985Z,21.00
2022-09-16T10:35:45.582Z,21.00
2022-09-16T10:38:20.659Z,20.90
2022-09-16T10:40:58.262Z,20.90
2022-09-16T10:43:36.167Z,20.90
2022-09-16T10:46:15.592Z,21.00
2022-09-16T10:48:52.070Z,21.00
2022-09-16T10:54:38.511Z,20.80
2022-09-16T10:57:32.526Z,20.80
2022-09-16T11:00:16.721Z,20.80
2022-09-16T11:03:01.132Z,20.70
2022-09-16T11:05:34.336Z,20.70
2022-09-16T11:08:14.288Z,20.70
2022-09-16T11:10:55.522Z,20.60
2022-09-16T11:13:51.383Z,20.40
2022-09-16T11:16:53.805Z,20.10
2022-09-16T11:19:35.525Z,20.10
2022-09-16T11:22:22.499Z,20.20
2022-09-16T11:25:48.367Z,20.30
2022-09-16T11:28:37.444Z,20.30
2022-09-16T11:31:06.795Z,20.50
2022-09-16T11:33:45.178Z,20.60
2022-09-16T11:36:38.404Z,20.50
2022-09-16T11:39:21.870Z,20.40
2022-09-16T11:41:58.165Z,20.20
2022-09-16T11:44:41.044Z,19.80
2022-09-16T11:47:40.914Z,19.40
2022-09-16T11:50:29.497Z,19.10
2022-09-16T11:53:35.428Z,19.00
2022-09-16T11:56:16.176Z,18.90
2022-09-16T11:58:51.709Z,19.00
2022-09-16T12:01:34.630Z,18.90
2022-09-16T12:04:11.144Z,19.00
2022-09-16T12:06:50.933Z,19.10
2022-09-16T12:09:30.289Z,19.30
2022-09-16T12:12:12.602Z,19.20
2022-09-16T12:14:54.972Z,19.10
2022-09-16T12:17:32.691Z,19.00
2022-09-16T12:20:07.675Z,19.00
2022-09-16T12:22:46.969Z,19.00
2022-09-16T12:25:38.260Z,19.10
2022-09-16T12:28:39.597Z,19.00
2022-09-16T12:31:23.581Z,19.00
2022-09-16T12:34:07.965Z,19.00
2022-09-16T12:37:08.508Z,19.00
2022-09-16T12:39:50.416Z,19.00
2022-09-16T12:42:50.301Z,19.10
2022-09-16T12:45:54.020Z,19.10
2022-09-16T12:48:44.552Z,19.00
2022-09-16T12:51:45.887Z,18.80
2022-09-16T12:55:04.004Z,18.70
2022-09-16T12:57:46.763Z,18.50
2022-09-16T13:00:26.090Z,18.40
2022-09-16T13:03:02.168Z,18.20
2022-09-16T13:05:40.325Z,18.10
2022-09-16T13:08:22.365Z,18.00
2022-09-16T13:11:29.272Z,18.00
2022-09-16T13:13:59.060Z,18.00
2022-09-16T13:16:33.065Z,18.10
2022-09-16T13:19:30.900Z,18.10
2022-09-16T13:22:18.783Z,18.20
2022-09-16T13:24:54.109Z,18.20
2022-09-16T13:27:38.535Z,18.30
2022-09-16T13:30:21.498Z,18.20
2022-09-16T13:33:25.205Z,18.10
2022-09-16T13:36:10.512Z,17.90
2022-09-16T13:38:50.164Z,17.80
2022-09-16T13:41:33.676Z,17.70
2022-09-16T13:44:26.077Z,17.70
2022-09-16T13:46:59.326Z,17.70
2022-09-16T13:49:34.443Z,17.50
2022-09-16T13:52:15.054Z,17.50
2022-09-16T13:55:12.381Z,17.50
2022-09-16T13:57:56.201Z,17.30
2022-09-16T14:00:35.351Z,17.30
2022-09-16T14:03:44.493Z,17.30
2022-09-16T14:06:34.312Z,17.40
2022-09-16T14:09:14.145Z,17.40
2022-09-16T14:11:53.794Z,17.30
2022-09-16T14:17:23.484Z,17.40
2022-09-16T14:19:57.240Z,17.40
2022-09-16T14:22:32.099Z,17.40
2022-09-16T14:25:19.539Z,17.40
2022-09-16T14:28:20.672Z,17.40
2022-09-16T14:30:58.741Z,17.40
2022-09-16T14:33:37.124Z,17.40
2022-09-16T14:36:13.872Z,17.30
2022-09-16T14:38:54.474Z,17.20
2022-09-16T14:41:34.066Z,17.10
2022-09-16T14:44:21.259Z,17.10
2022-09-16T14:47:07.546Z,17.00
2022-09-16T14:49:44.336Z,17.00
2022-09-16T14:52:24.650Z,16.90
2022-09-16T14:55:00.290Z,16.80
2022-09-16T14:57:34.825Z,16.70
2022-09-16T15:00:17.531Z,16.60
2022-09-16T15:02:54.598Z,16.50
2022-09-16T15:05:33.238Z,16.40
2022-09-16T15:08:46.229Z,16.30
2022-09-16T15:11:48.009Z,16.10
2022-09-16T15:17:41.399Z,15.90
2022-09-16T15:20:38.399Z,16.00
2022-09-16T15:23:24.427Z,15.90
2022-09-16T15:27:04.522Z,15.90
2022-09-16T15:30:07.060Z,15.80
2022-09-16T15:33:01.803Z,15.80
2022-09-16T15:35:36.269Z,15.80
2022-09-16T15:38:16.357Z,15.80
2022-09-16T15:40:52.788Z,15.80
2022-09-16T15:43:35.091Z,15.70
2022-09-16T15:46:18.587Z,15.80
2022-09-16T15:51:51.990Z,15.80
2022-09-16T15:54:54.145Z,15.80
2022-09-16T15:57:33.010Z,15.80
2022-09-16T16:00:12.995Z,15.80
2022-09-16T16:02:49.608Z,15.80
2022-09-16T16:05:29.867Z,15.80
2022-09-16T16:08:09.953Z,15.80
2022-09-16T16:10:45.033Z,15.70
2022-09-16T16:13:23.316Z,15.70
2022-09-16T16:16:00.303Z,15.70
2022-09-16T16:18:35.750Z,15.70
2022-09-16T16:21:12.346Z,15.70
2022-09-16T16:23:51.231Z,15.70
2022-09-16T16:26:26.405Z,15.60
2022-09-16T16:29:01.614Z,15.60
2022-09-16T16:31:39.580Z,15.60
2022-09-16T16:34:15.816Z,15.60
2022-09-16T16:36:50.757Z,15.60
2022-09-16T16:39:27.413Z,15.50
2022-09-16T16:42:04.475Z,15.50
2022-09-16T16:44:37.921Z,15.60
2022-09-16T16:47:14.236Z,15.40
2022-09-16T16:49:51.466Z,15.40
2022-09-16T16:52:26.815Z,15.30
2022-09-16T16:55:04.978Z,15.30
2022-09-16T16:57:40.458Z,15.20
2022-09-16T17:00:19.780Z,15.20
2022-09-16T17:02:55.339Z,15.10
2022-09-16T17:05:31.920Z,15.00
2022-09-16T17:08:06.430Z,15.00
2022-09-16T17:10:47.034Z,14.90
2022-09-16T17:13:22.120Z,14.90
2022-09-16T17:15:57.420Z,14.80
2022-09-16T17:18:32.884Z,14.70
2022-09-16T17:21:14.836Z,14.70
2022-09-16T17:23:52.859Z,14.60
2022-09-16T17:26:33.253Z,14.60
2022-09-16T17:29:15.691Z,14.50
2022-09-16T17:31:51.279Z,14.60
2022-09-16T17:34:28.345Z,14.50
2022-09-16T17:37:04.644Z,14.50
2022-09-16T17:39:38.705Z,14.40
2022-09-16T17:42:16.545Z,14.40
2022-09-16T17:44:51.522Z,14.40
2022-09-16T17:47:26.598Z,14.30
2022-09-16T17:50:05.997Z,14.30
2022-09-16T17:52:43.429Z,14.30
2022-09-16T17:55:19.126Z,14.30
2022-09-16T17:58:01.007Z,14.30
2022-09-16T18:00:36.233Z,14.20
2022-09-16T18:03:07.524Z,14.20
2022-09-16T18:05:42.888Z,14.20
2022-09-16T18:08:25.229Z,14.20
2022-09-16T18:10:59.390Z,14.20
2022-09-16T18:13:37.670Z,14.20
2022-09-16T18:16:13.881Z,14.10
2022-09-16T18:18:50.096Z,14.10
2022-09-16T18:21:25.887Z,14.00
2022-09-16T18:24:02.629Z,14.00
2022-09-16T18:26:42.297Z,13.90
2022-09-16T18:29:20.308Z,13.90
2022-09-16T18:31:57.493Z,13.90
2022-09-16T18:34:33.705Z,13.80
2022-09-16T18:37:07.257Z,13.80
2022-09-16T18:39:41.387Z,13.80
2022-09-16T18:42:16.240Z,13.70
2022-09-16T18:44:59.434Z,13.70
2022-09-16T18:47:32.396Z,13.70
2022-09-16T18:50:07.178Z,13.60
2022-09-16T18:52:44.960Z,13.60
2022-09-16T18:55:21.357Z,13.50
2022-09-16T18:57:57.270Z,13.50
2022-09-16T19:00:43.303Z,13.50
2022-09-16T19:03:23.174Z,13.40
2022-09-16T19:06:01.355Z,13.40
2022-09-16T19:08:35.747Z,13.30
2022-09-16T19:11:13.048Z,13.30
2022-09-16T19:13:48.423Z,13.20
2022-09-16T19:16:25.212Z,13.20
2022-09-16T19:19:01.402Z,13.10
2022-09-16T19:21:38.397Z,13.00
2022-09-16T19:24:16.398Z,13.00
2022-09-16T19:26:51.376Z,13.00
2022-09-16T19:29:26.518Z,12.90
2022-09-16T19:32:05.379Z,12.90
2022-09-16T19:34:39.496Z,12.80
2022-09-16T19:37:14.489Z,12.80
2022-09-16T19:39:50.566Z,12.80
2022-09-16T19:42:24.770Z,12.70
2022-09-16T19:45:03.011Z,12.70
2022-09-16T19:47:42.355Z,12.70
2022-09-16T19:50:19.131Z,12.60
2022-09-16T19:52:56.327Z,12.60
2022-09-16T19:55:30.889Z,12.50
2022-09-16T19:58:06.121Z,12.50
2022-09-16T20:00:55.801Z,12.40
2022-09-16T20:03:38.037Z,12.40
2022-09-16T20:06:12.451Z,12.40
2022-09-16T20:08:51.389Z,12.40
2022-09-16T20:11:26.103Z,12.40
2022-09-16T20:14:03.518Z,12.30
2022-09-16T20:16:39.493Z,12.30
2022-09-16T20:19:15.329Z,12.30
2022-09-16T20:21:50.585Z,12.20
2022-09-16T20:24:27.694Z,12.20
2022-09-16T20:27:08.060Z,12.10
2022-09-16T20:29:43.772Z,12.10
2022-09-16T20:32:17.847Z,12.00
2022-09-16T20:34:56.781Z,12.00
2022-09-16T20:37:32.845Z,11.90
2022-09-16T20:40:08.942Z,11.90
2022-09-16T20:42:44.752Z,11.90
2022-09-16T20:45:19.165Z,11.90
2022-09-16T20:47:57.132Z,11.90
2022-09-16T20:50:36.230Z,11.90
2022-09-16T20:53:15.069Z,11.80
2022-09-16T20:56:11.099Z,11.80
2022-09-16T20:58:48.494Z,11.80
2022-09-16T21:01:24.729Z,11.80
2022-09-16T21:07:07.130Z,11.70
2022-09-16T21:09:45.409Z,11.70
2022-09-16T21:12:23.334Z,11.60
2022-09-16T21:15:05.037Z,11.60
2022-09-16T21:17:38.817Z,11.50
2022-09-16T21:20:17.589Z,11.50
2022-09-16T21:22:54.950Z,11.50
2022-09-16T21:25:29.737Z,11.40
2022-09-16T21:28:09.230Z,11.40
2022-09-16T21:30:44.776Z,11.40
2022-09-16T21:33:21.770Z,11.40
2022-09-16T21:35:56.839Z,11.40
2022-09-16T21:38:39.678Z,11.30
2022-09-16T21:41:15.661Z,11.30
2022-09-16T21:43:53.605Z,11.30
2022-09-16T21:46:35.368Z,11.20
2022-09-16T21:49:10.367Z,11.20
2022-09-16T21:51:45.955Z,11.20
2022-09-16T21:54:22.113Z,11.10
2022-09-16T21:56:56.830Z,11.20
2022-09-16T21:59:38.113Z,11.20
2022-09-16T22:02:19.027Z,11.20
2022-09-16T22:04:53.576Z,11.20
2022-09-16T22:07:32.256Z,11.10
2022-09-16T22:10:15.832Z,11.10
2022-09-16T22:12:51.855Z,11.10
2022-09-16T22:15:25.224Z,11.00
2022-09-16T22:18:06.895Z,11.00
2022-09-16T22:20:45.824Z,11.10
2022-09-16T22:23:24.779Z,11.00
2022-09-16T22:26:00.231Z,11.00
2022-09-16T22:28:37.301Z,11.00
2022-09-16T22:31:12.650Z,11.00
2022-09-16T22:33:48.299Z,11.00
2022-09-16T22:36:26.536Z,11.00
2022-09-16T22:39:02.429Z,11.00
2022-09-16T22:41:40.757Z,11.00
2022-09-16T22:44:18.212Z,11.00
2022-09-16T22:46:50.819Z,11.00
2022-09-16T22:49:25.308Z,11.00
2022-09-16T22:52:00.404Z,11.00
2022-09-16T22:54:35.249Z,11.00
2022-09-16T22:57:13.210Z,10.90
2022-09-16T22:59:47.627Z,10.90
2022-09-16T23:02:20.400Z,10.90
2022-09-16T23:04:54.367Z,10.90
2022-09-16T23:07:28.378Z,10.80
2022-09-16T23:10:06.295Z,10.80
2022-09-16T23:12:45.670Z,10.80
2022-09-16T23:15:18.817Z,10.80
2022-09-16T23:17:51.695Z,10.70
2022-09-16T23:20:24.541Z,10.70
2022-09-16T23:22:58.314Z,10.80
2022-09-16T23:25:32.453Z,10.70
2022-09-16T23:28:07.611Z,10.60
2022-09-16T23:30:40.227Z,10.60
2022-09-16T23:33:14.508Z,10.60
2022-09-16T23:35:52.829Z,10.60
2022-09-16T23:38:25.358Z,10.50
2022-09-16T23:41:01.683Z,10.50
2022-09-16T23:43:37.440Z,10.50
2022-09-16T23:46:11.211Z,10.50
2022-09-16T23:48:45.561Z,10.50
2022-09-16T23:51:18.205Z,10.40
2022-09-16T23:53:50.418Z,10.40
2022-09-16T23:56:24.597Z,10.50
2022-09-16T23:59:01.533Z,10.40
